createdAt,value
2022-10-09T00:00:45.417Z,5.32
2022-10-09T00:03:12.560Z,4.72
2022-10-09T00:05:38.931Z,4.75
2022-10-09T00:08:05.277Z,4.90
2022-10-09T00:10:31.686Z,4.90
2022-10-09T00:12:58.106Z,4.75
2022-10-09T00:15:24.515Z,4.50
2022-10-09T00:17:50.804Z,4.07
2022-10-09T00:20:17.119Z,3.90
2022-10-09T00:22:43.539Z,5.05
2022-10-09T00:25:10.108Z,4.10
2022-10-09T00:27:36.395Z,4.32
2022-10-09T00:30:02.785Z,5.50
2022-10-09T00:32:29.075Z,5.80
2022-10-09T00:34:55.363Z,5.40
2022-10-09T00:37:21.643Z,4.93
2022-10-09T00:39:47.953Z,4.90
2022-10-09T00:42:14.252Z,4.35
2022-10-09T00:44:48.615Z,4.90
2022-10-09T00:47:20.515Z,4.22
2022-10-09T00:49:47.431Z,4.20
2022-10-09T00:52:13.804Z,3.92
2022-10-09T00:54:40.740Z,4.38
2022-10-09T00:57:07.525Z,4.22
2022-10-09T00:59:33.887Z,4.22
2022-10-09T01:02:00.310Z,3.92
2022-10-09T01:04:26.694Z,4.45
2022-10-09T01:07:08.106Z,4.57
2022-10-09T01:09:53.391Z,4.50
2022-10-09T01:12:23.136Z,4.85
2022-10-09T01:14:58.927Z,4.38
2022-10-09T01:17:31.288Z,4.82
2022-10-09T01:19:57.694Z,4.55
2022-10-09T01:22:36.161Z,4.85
2022-10-09T01:25:07.258Z,4.78
2022-10-09T01:27:35.189Z,4.75
2022-10-09T01:30:03.310Z,5.10
2022-10-09T01:32:31.641Z,5.05
2022-10-09T01:34:58.566Z,4.32
2022-10-09T01:37:24.998Z,4.05
2022-10-09T01:39:52.107Z,4.70
2022-10-09T01:42:19.029Z,4.55
2022-10-09T01:44:45.412Z,4.35
2022-10-09T01:47:16.020Z,4.53
2022-10-09T01:49:48.214Z,3.90
2022-10-09T01:52:25.480Z,3.80
2022-10-09T01:55:10.513Z,4.43
2022-10-09T01:57:39.816Z,3.72
2022-10-09T02:00:08.410Z,4.50
2022-10-09T02:02:38.950Z,4.10
2022-10-09T02:05:05.830Z,4.60
2022-10-09T02:07:32.684Z,4.82
2022-10-09T02:10:00.376Z,4.32
2022-10-09T02:12:27.714Z,4.45
2022-10-09T02:14:53.987Z,4.15
2022-10-09T02:17:23.302Z,3.65
2022-10-09T02:20:01.585Z,4.50
2022-10-09T02:22:29.617Z,4.13
2022-10-09T02:24:57.922Z,4.25
2022-10-09T02:27:24.697Z,4.05
2022-10-09T02:29:52.084Z,4.55
2022-10-09T02:32:18.623Z,4.15
2022-10-09T02:34:45.030Z,3.78
2022-10-09T02:37:11.437Z,4.35
2022-10-09T02:39:37.794Z,3.88
2022-10-09T02:42:04.657Z,4.70
2022-10-09T02:44:30.988Z,3.78
2022-10-09T02:46:57.339Z,4.22
2022-10-09T02:49:23.726Z,4.10
2022-10-09T02:51:50.092Z,4.35
2022-10-09T02:54:16.600Z,5.30
2022-10-09T02:56:42.966Z,4.10
2022-10-09T02:59:09.388Z,3.75
2022-10-09T03:01:35.789Z,3.72
2022-10-09T03:04:02.316Z,4.18
2022-10-09T03:06:28.927Z,3.45
2022-10-09T03:08:55.880Z,3.60
2022-10-09T03:11:23.434Z,3.33
2022-10-09T03:13:50.238Z,3.97
2022-10-09T03:16:18.219Z,3.65
2022-10-09T03:18:45.163Z,3.60
2022-10-09T03:21:12.874Z,3.88
2022-10-09T03:23:39.618Z,3.88
2022-10-09T03:26:07.511Z,3.63
2022-10-09T03:28:37.636Z,3.70
2022-10-09T03:31:04.285Z,3.75
2022-10-09T03:33:31.676Z,3.92
2022-10-09T03:35:58.039Z,3.85
2022-10-09T03:38:24.399Z,4.22
2022-10-09T03:40:50.758Z,3.33
2022-10-09T03:43:17.195Z,4.13
2022-10-09T03:45:43.881Z,4.32
2022-10-09T03:48:13.693Z,3.70
2022-10-09T03:50:41.505Z,3.78
2022-10-09T03:53:08.995Z,3.97
2022-10-09T03:55:35.703Z,4.15
2022-10-09T03:58:02.413Z,4.25
2022-10-09T04:03:17.090Z,3.63
2022-10-09T04:05:43.416Z,3.75
2022-10-09T04:08:09.768Z,4.13
2022-10-09T04:10:36.115Z,3.47
2022-10-09T04:13:02.668Z,4.22
2022-10-09T04:15:29.016Z,3.95
2022-10-09T04:17:55.399Z,3.75
2022-10-09T04:20:22.439Z,4.20
2022-10-09T04:22:48.983Z,3.70
2022-10-09T04:25:15.526Z,3.58
2022-10-09T04:27:41.989Z,3.67
2022-10-09T04:30:08.758Z,4.10
2022-10-09T04:32:35.111Z,3.92
2022-10-09T04:35:01.475Z,3.63
2022-10-09T04:37:27.820Z,3.83
2022-10-09T04:39:54.165Z,3.72
2022-10-09T04:42:20.504Z,4.10
2022-10-09T04:44:46.823Z,3.63
2022-10-09T04:47:13.178Z,3.80
2022-10-09T04:49:39.749Z,3.75
2022-10-09T04:52:06.112Z,3.55
2022-10-09T04:54:32.457Z,3.80
2022-10-09T04:56:58.793Z,4.35
2022-10-09T04:59:25.154Z,4.38
2022-10-09T05:01:51.524Z,4.10
2022-10-09T05:04:17.923Z,4.25
2022-10-09T05:06:44.350Z,3.70
2022-10-09T05:09:10.706Z,4.07
2022-10-09T05:11:41.733Z,4.85
2022-10-09T05:14:08.999Z,3.85
2022-10-09T05:16:44.992Z,3.78
2022-10-09T05:19:21.695Z,4.25
2022-10-09T05:21:48.013Z,4.18
2022-10-09T05:24:14.423Z,3.92
2022-10-09T05:26:40.797Z,4.03
2022-10-09T05:29:07.201Z,4.20
2022-10-09T05:31:33.640Z,3.90
2022-10-09T05:34:00.622Z,3.80
2022-10-09T05:36:27.152Z,3.80
2022-10-09T05:38:53.478Z,4.30
2022-10-09T05:41:20.025Z,3.88
2022-10-09T05:43:47.674Z,6.88
2022-10-09T05:46:15.739Z,8.05
2022-10-09T05:48:42.933Z,5.50
2022-10-09T05:51:09.329Z,4.80
2022-10-09T05:53:35.725Z,4.68
2022-10-09T05:56:19.007Z,4.20
2022-10-09T05:58:50.145Z,3.70
2022-10-09T06:01:16.508Z,3.63
2022-10-09T06:03:42.879Z,4.63
2022-10-09T06:06:09.321Z,4.50
2022-10-09T06:08:36.513Z,3.50
2022-10-09T06:11:13.096Z,4.10
2022-10-09T06:13:40.198Z,5.20
2022-10-09T06:16:06.559Z,4.78
2022-10-09T06:18:33.168Z,4.70
2022-10-09T06:21:00.595Z,4.78
2022-10-09T06:23:27.297Z,4.85
2022-10-09T06:25:54.951Z,3.80
2022-10-09T06:28:21.643Z,3.90
2022-10-09T06:30:48.323Z,4.93
2022-10-09T06:33:14.692Z,4.47
2022-10-09T06:35:41.072Z,4.28
2022-10-09T06:38:07.481Z,6.40
2022-10-09T06:40:37.508Z,3.88
2022-10-09T06:43:04.409Z,3.88
2022-10-09T06:45:31.174Z,7.45
2022-10-09T06:47:57.528Z,8.50
2022-10-09T06:50:24.008Z,5.03
2022-10-09T06:52:50.948Z,5.40
2022-10-09T06:55:17.569Z,4.35
2022-10-09T06:57:43.891Z,4.20
2022-10-09T07:00:10.645Z,3.83
2022-10-09T07:02:41.803Z,3.92
2022-10-09T07:05:10.276Z,5.00
2022-10-09T07:07:39.518Z,4.65
2022-10-09T07:10:06.139Z,4.60
2022-10-09T07:12:34.238Z,4.03
2022-10-09T07:15:00.583Z,4.20
2022-10-09T07:17:27.599Z,3.88
2022-10-09T07:19:53.980Z,4.13
2022-10-09T07:22:23.611Z,3.33
2022-10-09T07:24:53.242Z,4.20
2022-10-09T07:27:19.594Z,3.63
2022-10-09T07:29:45.996Z,3.72
2022-10-09T07:32:12.432Z,4.25
2022-10-09T07:34:38.831Z,3.97
2022-10-09T07:37:05.205Z,4.40
2022-10-09T07:39:31.662Z,3.45
2022-10-09T07:41:58.009Z,4.13
2022-10-09T07:44:24.368Z,4.00
2022-10-09T07:46:51.530Z,4.38
2022-10-09T07:49:18.085Z,4.55
2022-10-09T07:51:45.224Z,4.82
2022-10-09T07:54:14.083Z,5.13
2022-10-09T07:56:40.463Z,6.45
2022-10-09T07:59:08.379Z,7.30
2022-10-09T08:01:35.494Z,6.70
2022-10-09T08:04:02.373Z,4.95
2022-10-09T08:06:29.272Z,4.93
2022-10-09T08:08:57.092Z,4.68
2022-10-09T08:11:24.187Z,4.38
2022-10-09T08:13:51.006Z,5.00
2022-10-09T08:16:17.961Z,5.90
2022-10-09T08:18:44.488Z,4.70
2022-10-09T08:21:23.654Z,5.60
2022-10-09T08:24:13.267Z,4.40
2022-10-09T08:29:13.859Z,4.63
2022-10-09T08:31:41.454Z,4.63
2022-10-09T08:34:07.904Z,5.35
2022-10-09T08:36:34.431Z,5.47
2022-10-09T08:39:00.810Z,4.57
2022-10-09T08:41:33.182Z,5.00
2022-10-09T08:44:04.806Z,5.10
2022-10-09T08:46:52.919Z,4.32
2022-10-09T08:49:22.712Z,4.50
2022-10-09T08:51:49.399Z,4.53
2022-10-09T08:54:22.319Z,5.00
2022-10-09T08:56:49.643Z,5.15
2022-10-09T08:59:16.059Z,4.05
2022-10-09T09:01:49.706Z,6.60
2022-10-09T09:04:34.547Z,5.60
2022-10-09T09:07:19.659Z,5.35
2022-10-09T09:09:54.481Z,4.60
2022-10-09T09:12:20.943Z,4.00
2022-10-09T09:14:53.143Z,4.30
2022-10-09T09:17:22.788Z,4.15
2022-10-09T09:19:55.379Z,3.22
2022-10-09T09:22:23.860Z,3.15
2022-10-09T09:24:54.563Z,3.40
2022-10-09T09:27:24.342Z,2.78
2022-10-09T09:30:03.327Z,2.80
2022-10-09T09:32:30.380Z,2.90
2022-10-09T09:35:08.111Z,16.40
2022-10-09T09:37:34.633Z,5.03
2022-10-09T09:42:47.766Z,2.70
2022-10-09T09:45:19.738Z,2.70
2022-10-09T09:47:49.348Z,3.10
2022-10-09T09:50:42.311Z,2.42
2022-10-09T09:53:04.788Z,2.55
2022-10-09T09:55:32.499Z,2.47
2022-10-09T09:58:00.287Z,2.72
2022-10-09T10:00:27.116Z,2.67
2022-10-09T10:03:13.737Z,2.65
2022-10-09T10:05:41.071Z,2.47
2022-10-09T10:08:27.655Z,2.22
2022-10-09T10:10:55.927Z,2.22
2022-10-09T10:13:30.588Z,2.20
2022-10-09T10:15:57.613Z,2.15
2022-10-09T10:18:28.681Z,2.45
2022-10-09T10:20:56.197Z,2.15
2022-10-09T10:23:24.081Z,2.42
2022-10-09T10:25:51.846Z,2.08
2022-10-09T10:28:20.761Z,2.05
2022-10-09T10:30:48.502Z,2.30
2022-10-09T10:33:18.504Z,2.33
2022-10-09T10:35:45.607Z,2.20
2022-10-09T10:38:30.959Z,2.47
2022-10-09T10:41:06.244Z,2.80
2022-10-09T10:43:46.360Z,2.83
2022-10-09T10:46:18.827Z,2.58
2022-10-09T10:48:47.118Z,2.20
2022-10-09T10:51:13.661Z,2.17
2022-10-09T10:53:52.539Z,2.08
2022-10-09T10:56:28.077Z,2.00
2022-10-09T10:59:01.824Z,2.20
2022-10-09T11:01:28.601Z,2.30
2022-10-09T11:04:13.340Z,2.28
2022-10-09T11:06:58.618Z,2.58
2022-10-09T11:09:24.987Z,2.03
2022-10-09T11:12:00.591Z,2.42
2022-10-09T11:14:50.352Z,2.00
2022-10-09T11:17:16.715Z,2.05
2022-10-09T11:19:57.936Z,1.98
2022-10-09T11:22:24.316Z,2.13
2022-10-09T11:25:09.433Z,1.55
2022-10-09T11:27:39.978Z,1.85
2022-10-09T11:30:09.843Z,1.77
2022-10-09T11:32:42.257Z,1.98
2022-10-09T11:35:12.313Z,1.77
2022-10-09T11:37:40.685Z,2.10
2022-10-09T11:40:18.154Z,1.73
2022-10-09T11:42:47.788Z,2.25
2022-10-09T11:45:14.158Z,1.85
2022-10-09T11:47:50.369Z,1.60
2022-10-09T11:50:16.962Z,1.45
2022-10-09T11:52:49.439Z,1.40
2022-10-09T11:55:20.916Z,1.50
2022-10-09T11:57:47.662Z,1.73
2022-10-09T12:00:15.104Z,1.40
2022-10-09T12:02:42.310Z,7.38
2022-10-09T12:05:19.320Z,1.70
2022-10-09T12:07:45.929Z,1.60
2022-10-09T12:10:41.510Z,1.60
2022-10-09T12:13:27.325Z,2.17
2022-10-09T12:15:55.501Z,1.67
2022-10-09T12:18:44.752Z,1.40
2022-10-09T12:21:37.481Z,1.60
2022-10-09T12:24:04.011Z,1.73
2022-10-09T12:26:30.853Z,1.40
2022-10-09T12:29:01.899Z,1.50
2022-10-09T12:31:39.016Z,1.67
2022-10-09T12:34:15.782Z,1.60
2022-10-09T12:36:42.434Z,1.65
2022-10-09T12:39:18.602Z,1.50
2022-10-09T12:41:47.104Z,1.83
2022-10-09T12:44:20.959Z,1.80
2022-10-09T12:46:47.435Z,1.55
2022-10-09T12:49:20.039Z,3.42
2022-10-09T12:51:56.213Z,1.90
2022-10-09T12:54:25.117Z,1.52
2022-10-09T12:56:55.463Z,1.58
2022-10-09T12:59:22.756Z,1.33
2022-10-09T13:01:50.274Z,1.42
2022-10-09T13:04:26.180Z,1.40
2022-10-09T13:06:53.382Z,1.10
2022-10-09T13:09:33.986Z,1.52
2022-10-09T13:12:14.196Z,1.83
2022-10-09T13:14:45.919Z,1.48
2022-10-09T13:20:03.218Z,1.50
2022-10-09T13:22:33.612Z,1.60
2022-10-09T13:25:02.289Z,1.67
2022-10-09T13:27:31.320Z,1.42
2022-10-09T13:29:58.178Z,1.58
2022-10-09T13:32:24.654Z,2.00
2022-10-09T13:34:53.678Z,2.20
2022-10-09T13:37:23.400Z,1.80
2022-10-09T13:39:57.008Z,1.50
2022-10-09T13:44:50.154Z,1.60
2022-10-09T13:47:19.647Z,1.83
2022-10-09T13:49:49.960Z,2.15
2022-10-09T13:52:16.751Z,2.15
2022-10-09T13:54:43.232Z,1.70
2022-10-09T13:57:09.756Z,1.70
2022-10-09T13:59:36.913Z,1.95
2022-10-09T14:02:03.364Z,1.90
2022-10-09T14:04:30.501Z,1.73
2022-10-09T14:06:57.459Z,2.40
2022-10-09T14:09:23.942Z,1.65
2022-10-09T14:11:50.308Z,1.70
2022-10-09T14:14:16.842Z,1.80
2022-10-09T14:16:43.370Z,1.77
2022-10-09T14:19:09.916Z,1.77
2022-10-09T14:21:36.350Z,1.80
2022-10-09T14:24:03.498Z,1.75
2022-10-09T14:26:30.005Z,1.95
2022-10-09T14:28:58.750Z,1.73
2022-10-09T14:31:25.222Z,1.90
2022-10-09T14:33:55.177Z,2.03
2022-10-09T14:36:21.603Z,1.83
2022-10-09T14:38:48.389Z,1.90
2022-10-09T14:41:15.391Z,13.45
2022-10-09T14:43:41.864Z,2.10
2022-10-09T14:46:12.044Z,1.98
2022-10-09T14:48:39.523Z,2.20
2022-10-09T14:51:07.431Z,1.88
2022-10-09T14:53:33.937Z,2.22
2022-10-09T14:56:01.424Z,1.67
2022-10-09T14:58:28.778Z,2.53
2022-10-09T15:00:55.155Z,2.00
2022-10-09T15:03:21.745Z,1.73
2022-10-09T15:05:48.132Z,2.22
2022-10-09T15:08:14.484Z,2.30
2022-10-09T15:10:40.890Z,2.38
2022-10-09T15:13:07.255Z,2.42
2022-10-09T15:15:33.652Z,1.75
2022-10-09T15:18:00.035Z,1.63
2022-10-09T15:20:26.547Z,2.13
2022-10-09T15:22:53.085Z,1.90
2022-10-09T15:25:19.438Z,2.55
2022-10-09T15:27:45.834Z,2.00
2022-10-09T15:30:12.507Z,1.92
2022-10-09T15:32:38.869Z,2.17
2022-10-09T15:35:05.503Z,2.35
2022-10-09T15:37:31.870Z,1.80
2022-10-09T15:39:58.269Z,1.98
2022-10-09T15:42:24.732Z,2.15
2022-10-09T15:44:51.369Z,2.40
2022-10-09T15:47:27.144Z,2.30
2022-10-09T15:50:04.542Z,2.30
2022-10-09T15:52:30.950Z,2.22
2022-10-09T15:54:57.304Z,2.20
2022-10-09T15:57:23.893Z,2.10
2022-10-09T15:59:50.317Z,3.65
2022-10-09T16:02:16.683Z,4.10
2022-10-09T16:04:43.034Z,2.15
2022-10-09T16:07:09.430Z,2.95
2022-10-09T16:09:36.149Z,7.18
2022-10-09T16:12:02.740Z,2.72
2022-10-09T16:14:32.480Z,2.00
2022-10-09T16:16:59.202Z,7.18
2022-10-09T16:19:25.595Z,3.35
2022-10-09T16:21:52.129Z,3.20
2022-10-09T16:24:18.939Z,2.22
2022-10-09T16:26:45.383Z,2.78
2022-10-09T16:29:11.756Z,2.28
2022-10-09T16:31:38.202Z,2.50
2022-10-09T16:34:05.056Z,1.98
2022-10-09T16:36:31.485Z,2.10
2022-10-09T16:38:58.354Z,2.17
2022-10-09T16:41:25.352Z,3.40
2022-10-09T16:43:53.380Z,4.50
2022-10-09T16:46:23.935Z,2.80
2022-10-09T16:48:50.853Z,3.00
2022-10-09T16:51:19.172Z,2.28
2022-10-09T16:53:48.467Z,4.97
2022-10-09T16:56:15.975Z,3.25
2022-10-09T16:58:43.066Z,3.38
2022-10-09T17:01:10.509Z,2.50
2022-10-09T17:03:40.238Z,2.47
2022-10-09T17:06:11.255Z,2.70
2022-10-09T17:08:37.649Z,2.90
2022-10-09T17:11:10.836Z,3.33
2022-10-09T17:13:37.366Z,3.00
2022-10-09T17:16:15.670Z,3.10
2022-10-09T17:18:44.368Z,4.20
2022-10-09T17:21:11.535Z,3.35
2022-10-09T17:23:38.899Z,3.00
2022-10-09T17:26:19.214Z,2.60
2022-10-09T17:28:46.311Z,2.90
2022-10-09T17:31:16.508Z,2.83
2022-10-09T17:33:45.896Z,3.25
2022-10-09T17:36:13.535Z,3.10
2022-10-09T17:38:40.049Z,3.63
2022-10-09T17:41:07.411Z,4.20
2022-10-09T17:43:34.024Z,3.60
2022-10-09T17:46:00.873Z,4.43
2022-10-09T17:48:27.764Z,3.95
2022-10-09T17:50:55.100Z,3.38
2022-10-09T17:53:24.543Z,4.35
2022-10-09T17:55:51.883Z,3.92
2022-10-09T17:58:19.022Z,4.05
2022-10-09T18:00:46.298Z,4.53
2022-10-09T18:03:12.751Z,3.75
2022-10-09T18:05:42.469Z,4.50
2022-10-09T18:08:08.848Z,4.43
2022-10-09T18:10:36.954Z,3.75
2022-10-09T18:13:04.032Z,4.28
2022-10-09T18:15:30.459Z,5.13
2022-10-09T18:17:56.889Z,5.65
2022-10-09T18:20:23.318Z,5.85
2022-10-09T18:22:49.755Z,5.68
2022-10-09T18:25:16.163Z,5.40
2022-10-09T18:27:42.739Z,5.72
2022-10-09T18:30:09.664Z,5.97
2022-10-09T18:32:36.015Z,7.82
2022-10-09T18:35:03.100Z,9.60
2022-10-09T18:37:29.497Z,9.77
2022-10-09T18:39:55.915Z,8.32
2022-10-09T18:42:25.160Z,6.30
2022-10-09T18:44:51.645Z,7.13
2022-10-09T18:47:19.227Z,5.82
2022-10-09T18:49:46.833Z,7.07
2022-10-09T18:52:14.025Z,6.60
2022-10-09T18:54:41.896Z,7.30
2022-10-09T18:57:08.793Z,5.88
2022-10-09T18:59:36.861Z,5.53
2022-10-09T19:02:03.687Z,6.53
2022-10-09T19:04:30.080Z,6.90
2022-10-09T19:06:56.607Z,6.82
2022-10-09T19:09:23.849Z,5.28
2022-10-09T19:11:50.355Z,5.93
2022-10-09T19:14:16.818Z,6.07
2022-10-09T19:16:43.180Z,6.00
2022-10-09T19:19:09.801Z,5.57
2022-10-09T19:21:39.252Z,5.40
2022-10-09T19:24:07.010Z,5.57
2022-10-09T19:26:35.151Z,5.18
2022-10-09T19:29:01.916Z,5.72
2022-10-09T19:31:28.331Z,6.32
2022-10-09T19:33:54.756Z,6.15
2022-10-09T19:36:21.190Z,5.75
2022-10-09T19:38:47.587Z,6.32
2022-10-09T19:41:14.691Z,5.90
2022-10-09T19:43:41.425Z,5.53
2022-10-09T19:46:12.533Z,4.95
2022-10-09T19:48:38.895Z,6.13
2022-10-09T19:51:09.395Z,5.82
2022-10-09T19:53:35.957Z,7.43
2022-10-09T19:56:02.998Z,6.55
2022-10-09T19:58:29.769Z,6.78
2022-10-09T20:00:56.277Z,6.72
2022-10-09T20:03:22.710Z,6.80
2022-10-09T20:05:49.079Z,5.95
2022-10-09T20:08:15.505Z,5.60
2022-10-09T20:10:41.897Z,5.80
2022-10-09T20:13:08.339Z,6.85
2022-10-09T20:15:34.779Z,7.05
2022-10-09T20:18:01.119Z,7.38
2022-10-09T20:20:27.656Z,6.55
2022-10-09T20:22:54.413Z,6.95
2022-10-09T20:25:20.987Z,6.03
2022-10-09T20:27:47.458Z,5.40
2022-10-09T20:30:13.795Z,6.35
2022-10-09T20:32:40.247Z,5.20
2022-10-09T20:35:07.135Z,6.53
2022-10-09T20:37:34.923Z,6.68
2022-10-09T20:40:01.427Z,5.47
2022-10-09T20:42:27.828Z,4.28
2022-10-09T20:44:54.199Z,4.47
2022-10-09T20:47:20.600Z,4.40
2022-10-09T20:49:48.321Z,4.30
2022-10-09T20:52:14.726Z,5.15
2022-10-09T20:54:41.096Z,5.70
2022-10-09T20:57:07.492Z,5.07
2022-10-09T20:59:34.022Z,4.03
2022-10-09T21:02:00.444Z,3.97
2022-10-09T21:04:26.917Z,3.78
2022-10-09T21:06:53.351Z,3.63
2022-10-09T21:09:19.824Z,4.03
2022-10-09T21:11:46.193Z,3.83
2022-10-09T21:14:12.728Z,3.90
2022-10-09T21:16:39.291Z,3.72
2022-10-09T21:19:05.868Z,4.00
2022-10-09T21:21:32.674Z,4.80
2022-10-09T21:23:59.600Z,4.63
2022-10-09T21:26:26.754Z,4.32
2022-10-09T21:28:58.315Z,4.03
2022-10-09T21:31:28.303Z,4.43
2022-10-09T21:33:54.951Z,4.40
2022-10-09T21:36:24.469Z,4.43
2022-10-09T21:38:51.207Z,4.50
2022-10-09T21:41:17.555Z,4.30
2022-10-09T21:43:44.034Z,4.60
2022-10-09T21:46:10.412Z,5.28
2022-10-09T21:48:36.751Z,5.15
2022-10-09T21:51:03.183Z,4.45
2022-10-09T21:53:29.560Z,4.60
2022-10-09T21:55:55.959Z,4.40
2022-10-09T21:58:22.322Z,4.28
2022-10-09T22:00:55.911Z,4.80
2022-10-09T22:03:23.500Z,3.88
2022-10-09T22:05:49.889Z,4.45
2022-10-09T22:08:16.227Z,4.70
2022-10-09T22:10:42.680Z,4.57
2022-10-09T22:13:09.077Z,4.40
2022-10-09T22:15:35.445Z,4.60
2022-10-09T22:18:01.833Z,4.35
2022-10-09T22:20:28.216Z,3.88
2022-10-09T22:22:54.572Z,4.63
2022-10-09T22:25:21.115Z,4.57
2022-10-09T22:27:47.469Z,4.35
2022-10-09T22:30:14.006Z,4.90
2022-10-09T22:32:40.498Z,4.43
2022-10-09T22:35:07.073Z,4.57
2022-10-09T22:37:33.485Z,4.15
2022-10-09T22:39:59.853Z,4.82
2022-10-09T22:42:26.715Z,5.28
2022-10-09T22:44:53.894Z,4.63
2022-10-09T22:47:20.577Z,4.57
2022-10-09T22:49:49.304Z,4.47
2022-10-09T22:52:15.708Z,4.63
2022-10-09T22:54:42.124Z,4.63
2022-10-09T22:57:08.488Z,5.00
2022-10-09T22:59:34.954Z,4.57
2022-10-09T23:02:01.416Z,4.65
2022-10-09T23:04:28.929Z,4.53
2022-10-09T23:06:56.551Z,4.20
2022-10-09T23:09:26.226Z,4.28
2022-10-09T23:11:52.852Z,4.40
2022-10-09T23:14:19.287Z,3.78
2022-10-09T23:16:45.656Z,4.25
2022-10-09T23:19:12.123Z,3.42
2022-10-09T23:21:40.612Z,3.35
2022-10-09T23:24:07.699Z,3.30
2022-10-09T23:26:34.713Z,3.65
2022-10-09T23:29:06.362Z,3.63
2022-10-09T23:31:33.533Z,3.58
2022-10-09T23:33:59.909Z,4.13
2022-10-09T23:36:28.643Z,4.53
2022-10-09T23:38:55.420Z,3.72
2022-10-09T23:41:22.551Z,4.50
2022-10-09T23:43:49.518Z,4.07
2022-10-09T23:46:17.412Z,3.83
2022-10-09T23:48:44.280Z,4.18
2022-10-09T23:51:11.222Z,4.28
2022-10-09T23:53:37.610Z,4.60
2022-10-09T23:56:17.127Z,4.47
2022-10-09T23:58:43.650Z,4.15
